Terminal Aerodrome Forecast
Issued by NWS Lake Charles, LA

Home | Current Version | Previous Version | Text Only | Print | Product List | Glossary On
Versions: 1 2 3 4 5 6 7 8 9 10 11 12 13 14 15
000
FTUS44 KLCH 270520
TAFAEX
TAF
KAEX 270520Z 2706/2806 16009KT P6SM SCT025
     FM270800 16009KT P6SM BKN025
     FM271600 19012KT P6SM SCT025 BKN050=

USA.gov is the U.S. government's official web portal to all federal, state and local government web resources and services.